s'Arenal, Spain
Current Conditions -  °F | °C
As of 7:30 AM on Thursday 29 Jan 2015 (Local Time) from LEPA Reporting Station
Scattered Clouds Scattered Clouds  
Wind Chill: 39°   Ceiling: Unl
Heat Index: 39°   Visibility: 6mi
Dew Point: 39°   Wind: 0mph
Humidity: 100%   Direction: NA
Pressure: 29.94"   Gusts: NA
Location:  39.5°N, 2.75°E
Report Text: LEPA 290630Z 00000KT 9999 FEW015 SCT045 04/04 Q1014 NOSIG
Loading
Personal Weather Stations






























Interactive Weather Map New forecast layout! Learn more

10-Day Weather Forecast

Advertisements
Track Severe Weather on mobile